createdAt,value
2023-01-26T00:00:56.631Z,19.25
2023-01-26T00:01:55.840Z,19.24
2023-01-26T00:02:55.699Z,19.24
2023-01-26T00:03:56.402Z,19.25
2023-01-26T00:04:56.294Z,19.32
2023-01-26T00:05:56.145Z,19.33
2023-01-26T00:06:55.672Z,19.33
2023-01-26T00:07:56.401Z,19.25
2023-01-26T00:08:55.874Z,19.24
2023-01-26T00:09:56.712Z,19.31
2023-01-26T00:10:55.563Z,19.35
2023-01-26T00:11:55.770Z,19.38
2023-01-26T00:12:56.289Z,19.32
2023-01-26T00:13:56.754Z,19.33
2023-01-26T00:14:55.591Z,19.32
2023-01-26T00:15:56.222Z,19.21
2023-01-26T00:16:55.605Z,19.31
2023-01-26T00:17:55.661Z,19.23
2023-01-26T00:18:56.484Z,19.33
2023-01-26T00:19:56.431Z,19.25
2023-01-26T00:20:55.632Z,19.33
2023-01-26T00:21:56.150Z,19.33
2023-01-26T00:22:55.619Z,19.25
2023-01-26T00:23:56.253Z,19.28
2023-01-26T00:24:55.419Z,19.29
2023-01-26T00:25:55.383Z,19.25
2023-01-26T00:26:55.583Z,19.32
2023-01-26T00:27:56.304Z,19.28
2023-01-26T00:28:56.346Z,19.33
2023-01-26T00:29:56.237Z,19.28
2023-01-26T00:30:56.152Z,19.32
2023-01-26T00:31:56.184Z,19.21
2023-01-26T00:32:56.075Z,19.24
2023-01-26T00:33:56.114Z,19.28
2023-01-26T00:34:55.392Z,19.33
2023-01-26T00:35:55.835Z,19.25
2023-01-26T00:36:54.826Z,19.31
2023-01-26T00:37:54.833Z,19.29
2023-01-26T00:38:54.803Z,19.33
2023-01-26T00:39:54.797Z,19.29
2023-01-26T00:40:54.782Z,19.32
2023-01-26T00:41:54.768Z,19.28
2023-01-26T00:42:54.758Z,19.32
2023-01-26T00:43:54.747Z,19.36
2023-01-26T00:44:54.734Z,19.36
2023-01-26T00:45:54.737Z,19.38
2023-01-26T00:46:54.768Z,19.35
2023-01-26T00:47:54.710Z,19.35
2023-01-26T00:48:54.697Z,19.33
2023-01-26T00:49:54.679Z,19.43
2023-01-26T00:50:54.753Z,19.42
2023-01-26T00:51:54.691Z,19.42
2023-01-26T00:52:54.668Z,19.39
2023-01-26T00:53:54.664Z,19.46
2023-01-26T00:54:54.657Z,19.46
2023-01-26T00:55:54.623Z,19.47
2023-01-26T00:56:54.597Z,19.46
2023-01-26T00:57:54.606Z,19.39
2023-01-26T00:58:54.577Z,19.46
2023-01-26T00:59:54.575Z,19.38
2023-01-26T01:00:54.663Z,19.42
2023-01-26T01:01:54.568Z,19.39
2023-01-26T01:02:54.530Z,19.42
2023-01-26T01:03:54.553Z,19.51
2023-01-26T01:04:54.505Z,19.47
2023-01-26T01:05:54.494Z,19.46
2023-01-26T01:06:54.498Z,19.43
2023-01-26T01:07:54.470Z,19.43
2023-01-26T01:08:54.463Z,19.47
2023-01-26T01:09:54.473Z,19.51
2023-01-26T01:10:54.438Z,19.43
2023-01-26T01:11:54.426Z,19.42
2023-01-26T01:12:54.417Z,19.54
2023-01-26T01:13:54.403Z,19.54
2023-01-26T01:14:54.391Z,19.53
2023-01-26T01:15:54.402Z,19.47
2023-01-26T01:16:54.368Z,19.54
2023-01-26T01:17:54.363Z,19.48
2023-01-26T01:18:54.355Z,19.55
2023-01-26T01:19:54.336Z,19.58
2023-01-26T01:20:54.325Z,19.51
2023-01-26T01:21:54.328Z,19.47
2023-01-26T01:22:54.301Z,19.51
2023-01-26T01:23:54.377Z,19.53
2023-01-26T01:24:54.280Z,19.54
2023-01-26T01:25:54.285Z,19.48
2023-01-26T01:26:54.258Z,19.57
2023-01-26T01:27:54.290Z,19.43
2023-01-26T01:28:54.231Z,19.51
2023-01-26T01:29:54.220Z,19.39
2023-01-26T01:30:54.282Z,19.58
2023-01-26T01:31:54.238Z,19.58
2023-01-26T01:32:54.193Z,19.61
2023-01-26T01:33:54.201Z,19.58
2023-01-26T01:34:54.166Z,19.58
2023-01-26T01:35:54.153Z,19.58
2023-01-26T01:36:54.146Z,19.58
2023-01-26T01:37:54.130Z,19.58
2023-01-26T01:38:54.135Z,19.39
2023-01-26T01:39:54.114Z,19.61
2023-01-26T01:40:54.095Z,19.48
2023-01-26T01:41:54.100Z,19.55
2023-01-26T01:42:54.071Z,19.57
2023-01-26T01:43:54.063Z,19.46
2023-01-26T01:44:54.049Z,19.48
2023-01-26T01:45:54.044Z,19.48
2023-01-26T01:46:54.152Z,19.48
2023-01-26T01:47:54.015Z,19.47
2023-01-26T01:48:54.002Z,19.48
2023-01-26T01:49:53.994Z,19.53
2023-01-26T01:50:53.980Z,19.57
2023-01-26T01:51:53.976Z,19.61
2023-01-26T01:52:53.959Z,19.58
2023-01-26T01:53:53.946Z,19.46
2023-01-26T01:54:53.935Z,19.54
2023-01-26T01:55:53.922Z,19.60
2023-01-26T01:56:53.916Z,19.51
2023-01-26T01:57:54.006Z,19.58
2023-01-26T01:58:53.894Z,19.54
2023-01-26T01:59:53.879Z,19.60
2023-01-26T02:00:53.931Z,19.55
2023-01-26T02:01:53.925Z,19.65
2023-01-26T02:02:53.847Z,19.61
2023-01-26T02:03:53.853Z,19.60
2023-01-26T02:04:53.821Z,19.54
2023-01-26T02:05:53.822Z,19.66
2023-01-26T02:06:53.798Z,19.60
2023-01-26T02:07:53.788Z,19.61
2023-01-26T02:08:53.795Z,19.55
2023-01-26T02:09:53.772Z,19.63
2023-01-26T02:10:53.753Z,19.60
2023-01-26T02:11:53.741Z,19.57
2023-01-26T02:12:53.730Z,19.63
2023-01-26T02:13:53.735Z,19.66
2023-01-26T02:14:53.725Z,19.60
2023-01-26T02:15:53.736Z,19.66
2023-01-26T02:16:53.684Z,19.58
2023-01-26T02:17:53.674Z,19.58
2023-01-26T02:18:53.671Z,19.63
2023-01-26T02:19:53.652Z,19.61
2023-01-26T02:20:53.638Z,19.60
2023-01-26T02:21:53.657Z,19.60
2023-01-26T02:22:53.617Z,19.66
2023-01-26T02:23:53.651Z,19.68
2023-01-26T02:24:53.593Z,19.63
2023-01-26T02:25:53.581Z,19.68
2023-01-26T02:26:53.570Z,19.63
2023-01-26T02:27:53.566Z,19.68
2023-01-26T02:28:53.548Z,19.69
2023-01-26T02:29:53.557Z,19.68
2023-01-26T02:30:53.602Z,19.65
2023-01-26T02:31:53.639Z,19.69
2023-01-26T02:32:53.501Z,19.68
2023-01-26T02:33:53.498Z,19.63
2023-01-26T02:34:53.530Z,19.66
2023-01-26T02:35:53.470Z,19.63
2023-01-26T02:36:53.459Z,19.66
2023-01-26T02:37:53.446Z,19.61
2023-01-26T02:38:53.434Z,19.66
2023-01-26T02:39:53.450Z,19.63
2023-01-26T02:40:53.410Z,19.69
2023-01-26T02:41:53.412Z,19.63
2023-01-26T02:42:53.387Z,19.66
2023-01-26T02:43:53.376Z,19.65
2023-01-26T02:44:53.366Z,19.66
2023-01-26T02:45:53.377Z,19.65
2023-01-26T02:46:53.341Z,19.63
2023-01-26T02:47:53.330Z,19.63
2023-01-26T02:48:53.319Z,19.66
2023-01-26T02:49:53.311Z,19.61
2023-01-26T02:50:53.297Z,19.65
2023-01-26T02:51:53.295Z,19.65
2023-01-26T02:52:53.279Z,19.63
2023-01-26T02:53:53.263Z,19.61
2023-01-26T02:54:53.251Z,19.66
2023-01-26T02:55:53.239Z,19.63
2023-01-26T02:56:53.233Z,19.65
2023-01-26T02:57:53.238Z,19.65
2023-01-26T02:58:53.207Z,19.63
2023-01-26T02:59:53.202Z,19.65
2023-01-26T03:00:53.267Z,19.65
2023-01-26T03:01:53.263Z,19.63
2023-01-26T03:02:53.166Z,19.58
2023-01-26T03:03:53.164Z,19.65
2023-01-26T03:04:53.141Z,19.61
2023-01-26T03:05:53.125Z,19.65
2023-01-26T03:06:53.120Z,19.65
2023-01-26T03:07:53.109Z,19.60
2023-01-26T03:08:53.091Z,19.58
2023-01-26T03:09:53.089Z,19.66
2023-01-26T03:10:53.069Z,19.63
2023-01-26T03:11:53.065Z,19.61
2023-01-26T03:12:53.046Z,19.61
2023-01-26T03:13:53.045Z,19.66
2023-01-26T03:14:53.023Z,19.63
2023-01-26T03:15:53.118Z,19.63
2023-01-26T03:16:53.004Z,19.61
2023-01-26T03:17:53.009Z,19.70
2023-01-26T03:18:52.977Z,19.65
2023-01-26T03:19:52.969Z,19.66
2023-01-26T03:20:52.961Z,19.72
2023-01-26T03:21:52.961Z,19.65
2023-01-26T03:22:52.932Z,19.70
2023-01-26T03:23:52.950Z,19.63
2023-01-26T03:24:52.916Z,19.75
2023-01-26T03:25:52.898Z,19.63
2023-01-26T03:26:52.893Z,19.75
2023-01-26T03:27:52.884Z,19.73
2023-01-26T03:28:52.867Z,19.65
2023-01-26T03:29:52.855Z,19.73
2023-01-26T03:30:52.894Z,19.69
2023-01-26T03:31:52.829Z,19.70
2023-01-26T03:32:52.822Z,19.70
2023-01-26T03:33:52.835Z,19.66
2023-01-26T03:34:52.797Z,19.63
2023-01-26T03:35:52.790Z,19.66
2023-01-26T03:36:52.770Z,19.69
2023-01-26T03:37:52.765Z,19.73
2023-01-26T03:38:52.748Z,19.66
2023-01-26T03:39:52.785Z,19.76
2023-01-26T03:40:52.730Z,19.75
2023-01-26T03:41:52.717Z,19.73
2023-01-26T03:42:52.704Z,19.63
2023-01-26T03:43:52.693Z,19.69
2023-01-26T03:44:52.685Z,19.68
2023-01-26T03:45:52.678Z,19.80
2023-01-26T03:46:52.710Z,19.70
2023-01-26T03:47:52.648Z,19.70
2023-01-26T03:48:52.637Z,19.69
2023-01-26T03:49:52.640Z,19.68
2023-01-26T03:50:52.611Z,19.84
2023-01-26T03:51:52.626Z,19.68
2023-01-26T03:52:52.591Z,19.68
2023-01-26T03:53:52.579Z,19.76
2023-01-26T03:54:52.568Z,19.75
2023-01-26T03:55:52.556Z,19.78
2023-01-26T03:56:52.553Z,19.76
2023-01-26T03:57:52.543Z,19.78
2023-01-26T03:58:52.525Z,19.72
2023-01-26T03:59:52.512Z,19.75
2023-01-26T04:00:52.553Z,19.80
2023-01-26T04:01:52.513Z,19.78
2023-01-26T04:02:52.477Z,19.80
2023-01-26T04:03:52.516Z,19.76
2023-01-26T04:04:52.453Z,19.79
2023-01-26T04:05:52.462Z,19.78
2023-01-26T04:06:52.435Z,19.78
2023-01-26T04:07:52.419Z,19.78
2023-01-26T04:08:52.407Z,19.76
2023-01-26T04:09:52.404Z,19.79
2023-01-26T04:10:52.384Z,19.70
2023-01-26T04:11:52.373Z,19.75
2023-01-26T04:12:52.362Z,19.80
2023-01-26T04:13:52.349Z,19.72
2023-01-26T04:14:52.344Z,19.78
2023-01-26T04:15:52.352Z,19.76
2023-01-26T04:16:52.317Z,19.69
2023-01-26T04:17:52.304Z,19.78
2023-01-26T04:18:52.296Z,19.69
2023-01-26T04:19:52.282Z,19.78
2023-01-26T04:20:52.270Z,19.75
2023-01-26T04:21:52.307Z,19.80
2023-01-26T04:22:52.246Z,19.78
2023-01-26T04:23:52.256Z,19.80
2023-01-26T04:24:52.241Z,19.78
2023-01-26T04:25:52.213Z,19.83
2023-01-26T04:26:52.203Z,19.73
2023-01-26T04:27:52.205Z,19.76
2023-01-26T04:28:52.185Z,19.72
2023-01-26T04:29:52.170Z,19.73
2023-01-26T04:30:52.199Z,19.73
2023-01-26T04:31:52.226Z,19.75
2023-01-26T04:32:52.164Z,19.79
2023-01-26T04:33:52.143Z,19.73
2023-01-26T04:34:52.111Z,19.78
2023-01-26T04:35:52.103Z,19.79
2023-01-26T04:36:52.093Z,19.73
2023-01-26T04:37:52.099Z,19.80
2023-01-26T04:38:52.077Z,19.78
2023-01-26T04:39:52.065Z,19.79
2023-01-26T04:40:52.043Z,19.73
2023-01-26T04:41:52.033Z,19.75
2023-01-26T04:42:52.018Z,19.79
2023-01-26T04:43:52.009Z,19.73
2023-01-26T04:44:51.999Z,19.80
2023-01-26T04:45:52.028Z,19.78
2023-01-26T04:46:51.980Z,19.73
2023-01-26T04:47:51.962Z,19.80
2023-01-26T04:48:51.953Z,19.80
2023-01-26T04:49:51.939Z,19.78
2023-01-26T04:50:51.928Z,19.76
2023-01-26T04:51:51.946Z,19.72
2023-01-26T04:52:51.905Z,19.79
2023-01-26T04:53:51.912Z,19.78
2023-01-26T04:54:51.882Z,19.75
2023-01-26T04:55:51.874Z,19.79
2023-01-26T04:56:51.869Z,19.73
2023-01-26T04:57:51.853Z,19.79
2023-01-26T04:58:51.840Z,19.69
2023-01-26T04:59:51.827Z,19.76
2023-01-26T05:00:51.867Z,19.73
2023-01-26T05:01:51.802Z,19.73
2023-01-26T05:02:51.797Z,19.78
2023-01-26T05:03:51.895Z,19.72
2023-01-26T05:04:51.769Z,19.86
2023-01-26T05:05:51.763Z,19.79
2023-01-26T05:06:51.747Z,19.84
2023-01-26T05:07:51.734Z,19.73
2023-01-26T05:08:51.731Z,19.79
2023-01-26T05:09:51.765Z,19.83
2023-01-26T05:10:51.698Z,19.72
2023-01-26T05:11:51.694Z,19.79
2023-01-26T05:12:51.676Z,19.83
2023-01-26T05:13:51.671Z,19.76
2023-01-26T05:14:51.655Z,19.73
2023-01-26T05:15:51.647Z,19.73
2023-01-26T05:16:51.688Z,19.72
2023-01-26T05:17:51.619Z,19.80
2023-01-26T05:18:51.609Z,19.75
2023-01-26T05:19:51.597Z,19.73
2023-01-26T05:20:51.585Z,19.76
2023-01-26T05:21:51.593Z,19.79
2023-01-26T05:22:51.563Z,19.76
2023-01-26T05:23:51.592Z,19.79
2023-01-26T05:24:51.540Z,19.84
2023-01-26T05:25:51.545Z,19.83
2023-01-26T05:26:51.518Z,19.73
2023-01-26T05:27:51.539Z,19.73
2023-01-26T05:28:51.494Z,19.83
2023-01-26T05:29:51.484Z,19.69
2023-01-26T05:30:51.550Z,19.76
2023-01-26T05:31:51.525Z,19.83
2023-01-26T05:32:51.451Z,19.84
2023-01-26T05:33:51.444Z,19.70
2023-01-26T05:34:51.433Z,19.76
2023-01-26T05:35:51.414Z,19.78
2023-01-26T05:36:51.405Z,19.72
2023-01-26T05:37:51.391Z,19.80
2023-01-26T05:38:51.389Z,19.80
2023-01-26T05:39:51.409Z,19.73
2023-01-26T05:40:51.362Z,19.90
2023-01-26T05:41:51.372Z,19.78
2023-01-26T05:42:51.335Z,19.79
2023-01-26T05:43:51.323Z,19.75
2023-01-26T05:44:51.312Z,19.80
2023-01-26T05:45:51.361Z,19.76
2023-01-26T05:46:51.299Z,19.84
2023-01-26T05:47:51.282Z,19.84
2023-01-26T05:48:51.271Z,19.80
2023-01-26T05:49:51.255Z,19.76
2023-01-26T05:50:51.242Z,19.78
2023-01-26T05:51:51.242Z,19.76
2023-01-26T05:52:51.221Z,19.80
2023-01-26T05:53:51.216Z,19.76
2023-01-26T05:54:51.198Z,19.75
2023-01-26T05:55:51.195Z,19.72
2023-01-26T05:56:51.177Z,19.78
2023-01-26T05:57:51.192Z,19.79
2023-01-26T05:58:51.152Z,19.78
2023-01-26T05:59:51.141Z,19.75
2023-01-26T06:00:51.139Z,19.72
2023-01-26T06:01:51.176Z,19.72
2023-01-26T06:02:51.111Z,19.76
2023-01-26T06:03:51.123Z,19.79
2023-01-26T06:04:51.088Z,19.84
2023-01-26T06:05:51.072Z,19.84
2023-01-26T06:06:51.066Z,19.76
2023-01-26T06:07:51.061Z,19.73
2023-01-26T06:08:51.042Z,19.83
2023-01-26T06:09:51.048Z,19.76
2023-01-26T06:10:51.031Z,19.87
2023-01-26T06:11:51.018Z,19.70
2023-01-26T06:12:50.995Z,19.72
2023-01-26T06:13:51.001Z,19.78
2023-01-26T06:14:50.970Z,19.76
2023-01-26T06:15:50.983Z,19.80
2023-01-26T06:16:50.976Z,19.86
2023-01-26T06:17:50.935Z,19.75
2023-01-26T06:18:50.937Z,19.73
2023-01-26T06:19:50.927Z,19.69
2023-01-26T06:20:50.908Z,19.70
2023-01-26T06:21:50.899Z,19.73
2023-01-26T06:22:50.884Z,19.79
2023-01-26T06:23:50.900Z,19.76
2023-01-26T06:24:50.856Z,19.90
2023-01-26T06:25:50.847Z,19.84
2023-01-26T06:26:50.834Z,19.80
2023-01-26T06:27:50.830Z,19.86
2023-01-26T06:28:50.811Z,19.79
2023-01-26T06:29:50.823Z,19.83
2023-01-26T06:30:50.938Z,19.80
2023-01-26T06:31:50.784Z,19.78
2023-01-26T06:32:50.768Z,19.78
2023-01-26T06:33:50.784Z,19.83
2023-01-26T06:34:50.742Z,19.79
2023-01-26T06:35:50.738Z,19.80
2023-01-26T06:36:50.720Z,19.75
2023-01-26T06:37:50.707Z,19.78
2023-01-26T06:38:50.695Z,19.78
2023-01-26T06:39:50.713Z,19.73
2023-01-26T06:40:50.672Z,19.83
2023-01-26T06:41:50.667Z,19.75
2023-01-26T06:42:50.651Z,19.78
2023-01-26T06:43:50.638Z,19.78
2023-01-26T06:44:50.628Z,19.78
2023-01-26T06:45:50.668Z,19.79
2023-01-26T06:46:50.605Z,19.70
2023-01-26T06:47:50.595Z,19.87
2023-01-26T06:48:50.581Z,19.72
2023-01-26T06:49:50.571Z,19.76
2023-01-26T06:50:50.559Z,19.80
2023-01-26T06:51:50.558Z,19.75
2023-01-26T06:52:50.536Z,19.84
2023-01-26T06:53:50.527Z,19.78
2023-01-26T06:54:50.518Z,19.79
2023-01-26T06:55:50.503Z,19.86
2023-01-26T06:56:50.492Z,19.72
2023-01-26T06:57:50.486Z,19.79
2023-01-26T06:58:50.467Z,19.80
2023-01-26T06:59:50.456Z,19.79
2023-01-26T07:00:50.449Z,19.88
2023-01-26T07:01:50.460Z,19.90
2023-01-26T07:02:50.426Z,19.75
2023-01-26T07:03:50.443Z,19.76
2023-01-26T07:04:50.403Z,19.72
2023-01-26T07:05:50.396Z,19.78
2023-01-26T07:06:50.376Z,19.72
2023-01-26T07:07:50.369Z,19.83
2023-01-26T07:08:50.354Z,19.76
2023-01-26T07:09:50.355Z,19.80
2023-01-26T07:10:50.331Z,19.84
2023-01-26T07:11:50.325Z,19.75
2023-01-26T07:12:50.310Z,19.86
2023-01-26T07:13:50.296Z,19.75
2023-01-26T07:14:50.285Z,19.79
2023-01-26T07:15:50.300Z,19.69
2023-01-26T07:16:50.289Z,19.76
2023-01-26T07:17:50.273Z,19.86
2023-01-26T07:18:50.246Z,19.83
2023-01-26T07:19:50.228Z,19.78
2023-01-26T07:20:50.222Z,19.84
2023-01-26T07:21:50.213Z,19.84
2023-01-26T07:22:50.200Z,19.80
2023-01-26T07:23:50.216Z,19.83
2023-01-26T07:24:50.172Z,19.87
2023-01-26T07:25:50.161Z,19.83
2023-01-26T07:26:50.149Z,19.79
2023-01-26T07:27:50.145Z,19.83
2023-01-26T07:28:50.128Z,19.83
2023-01-26T07:29:50.122Z,19.84
2023-01-26T07:30:50.125Z,19.84
2023-01-26T07:31:50.195Z,19.83
2023-01-26T07:32:50.081Z,19.83
2023-01-26T07:33:50.119Z,19.86
2023-01-26T07:34:50.061Z,19.76
2023-01-26T07:35:50.047Z,19.84
2023-01-26T07:36:50.036Z,19.86
2023-01-26T07:37:50.031Z,19.78
2023-01-26T07:38:50.018Z,19.84
2023-01-26T07:39:50.007Z,19.83
2023-01-26T07:40:49.989Z,19.86
2023-01-26T07:41:49.977Z,19.79
2023-01-26T07:42:49.972Z,19.83
2023-01-26T07:43:49.987Z,19.83
2023-01-26T07:44:49.943Z,19.73
2023-01-26T07:45:49.943Z,19.84
2023-01-26T07:46:50.072Z,19.83
2023-01-26T07:47:49.909Z,19.80
2023-01-26T07:48:49.896Z,19.87
2023-01-26T07:49:49.905Z,19.88
2023-01-26T07:50:49.889Z,19.76
2023-01-26T07:51:49.870Z,19.80
2023-01-26T07:52:49.859Z,19.84
2023-01-26T07:53:49.882Z,19.88
2023-01-26T07:54:49.830Z,19.83
2023-01-26T07:55:49.820Z,19.80
2023-01-26T07:56:49.809Z,19.84
2023-01-26T07:57:49.815Z,19.87
2023-01-26T07:58:49.784Z,19.86
2023-01-26T07:59:49.773Z,19.83
2023-01-26T08:00:49.763Z,19.79
2023-01-26T08:01:49.766Z,19.84
2023-01-26T08:02:49.773Z,19.84
2023-01-26T08:03:49.742Z,19.79
2023-01-26T08:04:49.715Z,19.83
2023-01-26T08:05:49.732Z,19.83
2023-01-26T08:06:49.694Z,19.86
2023-01-26T08:07:49.696Z,19.83
2023-01-26T08:08:49.675Z,19.84
2023-01-26T08:09:49.672Z,19.84
2023-01-26T08:10:49.657Z,19.80
2023-01-26T08:11:49.635Z,19.80
2023-01-26T08:12:49.624Z,19.80
2023-01-26T08:13:49.624Z,19.83
2023-01-26T08:14:49.606Z,19.88
2023-01-26T08:15:49.609Z,19.86
2023-01-26T08:16:49.615Z,19.84
2023-01-26T08:17:49.571Z,19.87
2023-01-26T08:18:49.560Z,19.83
2023-01-26T08:19:49.560Z,19.86
2023-01-26T08:20:49.535Z,19.83
2023-01-26T08:21:49.562Z,19.80
2023-01-26T08:22:49.511Z,19.84
2023-01-26T08:23:49.519Z,19.80
2023-01-26T08:24:49.489Z,19.84
2023-01-26T08:25:49.495Z,19.84
2023-01-26T08:26:49.465Z,19.84
2023-01-26T08:27:49.459Z,19.90
2023-01-26T08:28:49.445Z,19.87
2023-01-26T08:29:49.433Z,19.90
2023-01-26T08:30:49.431Z,19.88
2023-01-26T08:31:49.636Z,19.84
2023-01-26T08:32:49.398Z,19.90
2023-01-26T08:33:49.392Z,19.88
2023-01-26T08:34:49.375Z,19.93
2023-01-26T08:35:49.363Z,19.86
2023-01-26T08:36:49.351Z,19.88
2023-01-26T08:37:49.359Z,19.90
2023-01-26T08:38:49.364Z,19.86
2023-01-26T08:39:49.326Z,19.78
2023-01-26T08:40:49.305Z,19.79
2023-01-26T08:41:49.306Z,19.91
2023-01-26T08:42:49.283Z,19.83
2023-01-26T08:43:49.274Z,19.86
2023-01-26T08:44:49.264Z,19.86
2023-01-26T08:45:49.275Z,19.93
2023-01-26T08:46:49.237Z,19.83
2023-01-26T08:47:49.225Z,19.88
2023-01-26T08:48:49.212Z,19.86
2023-01-26T08:49:49.211Z,19.86
2023-01-26T08:50:49.192Z,19.86
2023-01-26T08:51:49.186Z,19.94
2023-01-26T08:52:49.173Z,19.88
2023-01-26T08:53:49.173Z,19.91
2023-01-26T08:54:49.145Z,19.91
2023-01-26T08:55:49.135Z,19.84
2023-01-26T08:56:49.124Z,19.90
2023-01-26T08:57:49.118Z,19.93
2023-01-26T08:58:49.100Z,19.87
2023-01-26T08:59:49.090Z,19.84
2023-01-26T09:00:49.233Z,19.83
2023-01-26T09:01:51.154Z,19.93
2023-01-26T09:02:49.188Z,19.88
2023-01-26T09:03:49.052Z,19.86
2023-01-26T09:04:49.039Z,19.91
2023-01-26T09:05:49.024Z,19.94
2023-01-26T09:06:49.021Z,19.84
2023-01-26T09:07:48.999Z,19.95
2023-01-26T09:08:48.995Z,19.84
2023-01-26T09:09:49.009Z,19.88
2023-01-26T09:10:48.965Z,19.88
2023-01-26T09:11:48.953Z,19.91
2023-01-26T09:12:48.943Z,19.86
2023-01-26T09:13:48.929Z,19.90
2023-01-26T09:14:48.918Z,19.87
2023-01-26T09:15:48.913Z,19.88
2023-01-26T09:16:48.954Z,19.87
2023-01-26T09:17:48.884Z,19.91
2023-01-26T09:18:48.881Z,19.90
2023-01-26T09:19:48.863Z,19.94
2023-01-26T09:20:48.849Z,19.94
2023-01-26T09:21:48.845Z,19.97
2023-01-26T09:22:48.832Z,19.95
2023-01-26T09:23:48.919Z,19.93
2023-01-26T09:24:48.803Z,19.93
2023-01-26T09:25:48.817Z,19.98
2023-01-26T09:26:48.791Z,19.97
2023-01-26T09:27:48.800Z,19.97
2023-01-26T09:28:48.774Z,20.05
2023-01-26T09:29:48.816Z,19.98
2023-01-26T09:30:48.857Z,20.00
2023-01-26T09:31:48.934Z,20.03
2023-01-26T09:32:48.718Z,19.98
2023-01-26T09:33:48.709Z,20.15
2023-01-26T09:34:48.694Z,20.03
2023-01-26T09:35:48.686Z,20.06
2023-01-26T09:36:48.674Z,19.98
2023-01-26T09:37:48.678Z,20.08
2023-01-26T09:38:48.649Z,20.05
2023-01-26T09:39:48.644Z,20.10
2023-01-26T09:40:48.630Z,20.06
2023-01-26T09:41:48.644Z,20.12
2023-01-26T09:42:48.620Z,20.10
2023-01-26T09:43:48.599Z,20.13
2023-01-26T09:44:48.613Z,20.13
2023-01-26T09:45:48.651Z,20.20
2023-01-26T09:46:48.556Z,20.27
